Time;durP1;ratioP1;P1;durP2;ratioP2;P2;SDS_P1;SDS_P2;PMS_P1;PMS_P2;Temp;Humidity;BMP_temperature;BMP_pressure;BME280_temperature;BME280_humidity;BME280_pressure;Samples;Min_cycle;Max_cycle;Signal;HPM_P1;HPM_P2
2023/06/15 00:02:15;;;;;;;7.07;3.30;;;17.00;99.90;;;;;;5118223;28;20788;-60
2023/06/15 00:04:41;;;;;;;7.28;3.22;;;17.00;99.90;;;;;;5118029;28;20047;-61
2023/06/15 00:07:07;;;;;;;8.18;3.88;;;16.80;99.90;;;;;;5118320;28;20609;-60
2023/06/15 00:09:33;;;;;;;6.93;3.40;;;16.80;99.90;;;;;;5118442;28;20043;-61
2023/06/15 00:11:59;;;;;;;7.25;3.45;;;16.50;99.90;;;;;;5117923;28;20490;-60
2023/06/15 00:14:25;;;;;;;8.75;3.47;;;16.60;99.90;;;;;;5118387;28;20058;-60
2023/06/15 00:16:52;;;;;;;7.18;3.67;;;16.60;99.90;;;;;;5118397;28;20032;-60
2023/06/15 00:19:19;;;;;;;7.25;3.78;;;16.60;99.90;;;;;;5117879;28;20051;-61
2023/06/15 00:21:48;;;;;;;8.13;3.90;;;16.60;99.90;;;;;;5117976;28;20114;-61
2023/06/15 00:24:17;;;;;;;8.10;4.35;;;16.70;99.90;;;;;;5117858;28;20055;-60
2023/06/15 00:26:46;;;;;;;8.18;4.20;;;16.70;99.90;;;;;;5121453;28;20070;-60
2023/06/15 00:29:11;;;;;;;7.60;4.05;;;16.60;99.90;;;;;;5121971;28;20047;-61
2023/06/15 00:31:37;;;;;;;8.85;4.90;;;16.60;99.90;;;;;;5122095;28;20043;-60
2023/06/15 00:34:03;;;;;;;6.50;3.60;;;16.60;99.90;;;;;;5122330;27;20058;-61
2023/06/15 00:36:29;;;;;;;8.70;3.70;;;16.50;99.90;;;;;;5122015;28;20746;-61
2023/06/15 00:38:55;;;;;;;10.32;4.10;;;16.50;99.90;;;;;;5121712;28;20075;-61
2023/06/15 00:41:21;;;;;;;10.27;3.70;;;16.50;99.90;;;;;;5121793;28;20047;-61
2023/06/15 00:43:47;;;;;;;8.00;3.45;;;16.50;99.90;;;;;;5122459;28;20047;-61
2023/06/15 00:46:13;;;;;;;9.05;3.83;;;16.40;99.90;;;;;;5120544;28;20123;-60
2023/06/15 00:48:39;;;;;;;8.95;3.55;;;16.40;99.90;;;;;;5121832;28;20487;-60
2023/06/15 00:51:07;;;;;;;8.13;3.88;;;16.40;99.90;;;;;;5121653;28;20104;-60
2023/06/15 00:53:33;;;;;;;7.03;3.70;;;16.30;99.90;;;;;;5121487;28;20047;-61
2023/06/15 00:55:59;;;;;;;9.40;3.67;;;16.40;99.90;;;;;;5121694;28;20424;-60
2023/06/15 00:58:26;;;;;;;8.38;4.00;;;16.30;99.90;;;;;;5121569;28;20035;-61
2023/06/15 01:00:53;;;;;;;8.48;3.60;;;16.40;99.90;;;;;;5121936;28;20073;-60
2023/06/15 01:03:20;;;;;;;8.00;3.83;;;16.40;99.90;;;;;;5121145;28;20036;-60
2023/06/15 01:05:52;;;;;;;7.18;3.50;;;16.40;99.90;;;;;;5121442;28;20087;-61
2023/06/15 01:08:20;;;;;;;10.07;3.83;;;16.40;99.90;;;;;;5121375;28;20050;-60
2023/06/15 01:10:47;;;;;;;8.27;3.55;;;16.50;99.90;;;;;;5121484;27;20151;-61
2023/06/15 01:13:19;;;;;;;7.15;3.13;;;16.50;99.90;;;;;;5121235;28;20067;-60
2023/06/15 01:15:45;;;;;;;9.63;3.88;;;16.60;99.90;;;;;;5121023;28;20047;-60
2023/06/15 01:18:20;;;;;;;6.75;3.53;;;16.60;99.90;;;;;;5120207;28;20062;-61
2023/06/15 01:20:48;;;;;;;7.32;3.58;;;16.60;99.90;;;;;;5121166;28;20172;-60
2023/06/15 01:23:41;;;;;;;6.82;3.53;;;16.70;99.90;;;;;;5121319;28;20043;-60
2023/06/15 01:26:10;;;;;;;6.75;3.45;;;16.60;99.90;;;;;;5121227;28;20123;-59
2023/06/15 01:28:40;;;;;;;7.18;3.50;;;16.60;99.90;;;;;;5120502;28;20073;-61
2023/06/15 01:31:07;;;;;;;8.32;4.28;;;16.60;99.90;;;;;;5121747;28;20040;-61
2023/06/15 01:33:33;;;;;;;7.50;3.50;;;16.50;99.90;;;;;;5120609;28;20059;-61
2023/06/15 01:35:59;;;;;;;8.63;4.57;;;16.60;99.90;;;;;;5121107;28;20039;-61
2023/06/15 01:38:29;;;;;;;7.63;3.63;;;16.50;99.90;;;;;;5120192;28;20067;-61
2023/06/15 01:40:56;;;;;;;7.95;3.88;;;16.50;99.90;;;;;;5121125;28;20444;-61
2023/06/15 01:43:28;;;;;;;9.18;3.58;;;16.50;99.90;;;;;;5120526;28;20051;-61
2023/06/15 01:45:55;;;;;;;7.60;3.60;;;16.50;99.90;;;;;;5120566;28;20078;-61
2023/06/15 01:48:21;;;;;;;7.50;3.90;;;16.50;99.90;;;;;;5121080;28;20075;-60
2023/06/15 01:50:48;;;;;;;8.60;4.10;;;16.50;99.90;;;;;;5102137;28;20042;-60
2023/06/15 01:53:15;;;;;;;8.05;3.75;;;16.40;99.90;;;;;;5102477;28;20040;-60
2023/06/15 01:55:41;;;;;;;8.98;3.97;;;16.40;99.90;;;;;;5120699;28;20541;-61
2023/06/15 01:58:07;;;;;;;7.57;4.05;;;16.40;99.90;;;;;;5120811;27;20043;-60
2023/06/15 02:00:34;;;;;;;10.35;3.45;;;16.30;99.90;;;;;;5120553;28;20610;-60
2023/06/15 02:03:01;;;;;;;8.27;4.40;;;16.30;99.90;;;;;;5120138;28;20110;-61
2023/06/15 02:05:28;;;;;;;8.32;4.22;;;16.30;99.90;;;;;;5120858;28;20070;-61
2023/06/15 02:07:54;;;;;;;10.57;4.28;;;16.20;99.90;;;;;;5120336;28;20924;-60
2023/06/15 02:10:22;;;;;;;9.77;4.40;;;16.20;99.90;;;;;;5120278;28;20070;-61
2023/06/15 02:12:47;;;;;;;9.73;5.25;;;16.20;99.90;;;;;;5120190;28;20075;-61
2023/06/15 02:15:13;;;;;;;8.07;4.10;;;16.20;99.90;;;;;;5120352;27;20043;-60
2023/06/15 02:17:40;;;;;;;8.10;3.92;;;16.20;99.90;;;;;;5120087;28;20074;-58
2023/06/15 02:20:11;;;;;;;10.25;4.43;;;16.20;99.90;;;;;;5119884;28;20071;-60
2023/06/15 02:22:37;;;;;;;;;;;16.10;99.90;;;;;;5121092;28;20043;-61
2023/06/15 02:25:04;;;;;;;8.23;4.55;;;16.10;99.90;;;;;;5119593;28;20386;-60
2023/06/15 02:27:30;;;;;;;9.45;4.10;;;16.20;99.90;;;;;;5119981;28;20031;-60
2023/06/15 02:29:56;;;;;;;8.52;4.35;;;16.20;99.90;;;;;;5118490;28;20060;-60
2023/06/15 02:32:36;;;;;;;7.50;4.18;;;16.20;99.90;;;;;;5119852;28;20036;-60
2023/06/15 02:35:06;;;;;;;9.85;4.28;;;16.20;99.90;;;;;;5120204;28;20084;-61
2023/06/15 02:37:33;;;;;;;9.60;4.20;;;16.20;99.90;;;;;;5119433;28;20048;-60
2023/06/15 02:39:58;;;;;;;8.10;4.30;;;16.10;99.90;;;;;;5119799;28;20059;-61
2023/06/15 02:42:24;;;;;;;9.40;4.18;;;16.10;99.90;;;;;;5118553;28;20043;-60
2023/06/15 02:44:50;;;;;;;8.77;4.60;;;16.10;99.90;;;;;;5119439;28;20039;-60
2023/06/15 02:47:16;;;;;;;7.78;4.00;;;16.10;99.90;;;;;;5117944;28;20059;-60
2023/06/15 02:49:41;;;;;;;10.23;4.63;;;16.00;99.90;;;;;;5117899;28;20064;-60
2023/06/15 02:52:08;;;;;;;8.65;4.93;;;16.10;99.90;;;;;;5119119;28;20089;-60
2023/06/15 02:54:36;;;;;;;9.00;4.47;;;16.00;99.90;;;;;;5119058;28;20066;-61
2023/06/15 02:57:06;;;;;;;8.02;4.25;;;15.80;99.90;;;;;;5117955;28;20490;-61
2023/06/15 02:59:33;;;;;;;9.07;4.55;;;15.70;99.90;;;;;;5104979;28;20051;-61
2023/06/15 03:02:00;;;;;;;9.35;5.70;;;15.70;99.90;;;;;;5115893;28;20094;-60
2023/06/15 03:04:27;;;;;;;13.32;5.43;;;15.80;99.90;;;;;;5099962;28;20063;-60
2023/06/15 03:06:56;;;;;;;9.52;4.95;;;15.70;99.90;;;;;;5098585;28;20040;-60
2023/06/15 03:09:22;;;;;;;9.30;5.25;;;15.70;99.90;;;;;;5099108;28;20071;-60
2023/06/15 03:11:47;;;;;;;9.63;5.07;;;15.70;99.90;;;;;;5098335;28;20051;-60
2023/06/15 03:14:14;;;;;;;9.48;4.45;;;15.70;99.90;;;;;;5098916;28;20040;-59
2023/06/15 03:16:41;;;;;;;9.15;4.57;;;15.70;99.90;;;;;;5098804;28;20058;-61
2023/06/15 03:19:07;;;;;;;9.60;5.40;;;15.70;99.90;;;;;;5098274;28;20095;-61
2023/06/15 03:21:32;;;;;;;8.65;5.20;;;15.70;99.90;;;;;;5098414;28;20115;-60
2023/06/15 03:23:58;;;;;;;10.57;5.40;;;15.70;99.90;;;;;;5098437;28;20039;-61
2023/06/15 03:26:26;;;;;;;9.80;5.00;;;15.70;99.90;;;;;;5098853;28;20486;-60
2023/06/15 03:28:53;;;;;;;8.15;4.65;;;15.70;99.90;;;;;;5098201;28;20048;-60
2023/06/15 03:31:19;;;;;;;8.15;4.47;;;15.70;99.90;;;;;;5098808;28;20051;-60
2023/06/15 03:33:46;;;;;;;10.20;5.43;;;15.70;99.90;;;;;;5098046;28;20046;-60
2023/06/15 03:36:16;;;;;;;9.35;5.20;;;15.70;99.90;;;;;;5098378;28;20100;-61
2023/06/15 03:38:41;;;;;;;10.00;5.28;;;15.70;99.90;;;;;;5098132;28;20044;-60
2023/06/15 03:41:08;;;;;;;8.40;5.15;;;15.70;99.90;;;;;;5098277;28;20055;-60
2023/06/15 03:43:37;;;;;;;8.98;4.82;;;15.70;99.90;;;;;;5098383;28;20043;-60
2023/06/15 03:46:04;;;;;;;9.25;5.03;;;15.60;99.90;;;;;;5097712;28;20095;-59
2023/06/15 03:48:30;;;;;;;11.07;5.80;;;15.60;99.90;;;;;;5098143;28;20062;-60
2023/06/15 03:50:56;;;;;;;9.25;5.05;;;15.70;99.90;;;;;;5098426;28;20479;-60
2023/06/15 03:53:23;;;;;;;10.10;5.60;;;15.70;99.90;;;;;;5098102;28;20051;-60
2023/06/15 03:55:49;;;;;;;9.80;5.25;;;15.80;99.90;;;;;;5097948;28;20054;-60
2023/06/15 03:58:16;;;;;;;10.18;5.68;;;15.70;99.90;;;;;;5097868;28;20067;-60
2023/06/15 04:00:43;;;;;;;14.45;5.70;;;15.80;99.90;;;;;;5097615;28;20771;-61
2023/06/15 04:03:09;;;;;;;10.73;5.45;;;15.80;99.90;;;;;;5097501;28;20040;-60
2023/06/15 04:05:35;;;;;;;9.73;6.18;;;15.90;99.90;;;;;;5098366;28;20115;-60
2023/06/15 04:08:01;;;;;;;9.38;5.45;;;15.90;99.90;;;;;;5097889;28;20040;-60
2023/06/15 04:10:27;;;;;;;10.98;5.55;;;15.90;99.90;;;;;;5097552;28;20051;-61
2023/06/15 04:12:53;;;;;;;10.65;5.05;;;16.00;99.90;;;;;;5097741;28;20087;-61
2023/06/15 04:15:19;;;;;;;9.20;5.43;;;16.00;99.90;;;;;;5097673;28;20047;-60
2023/06/15 04:17:44;;;;;;;8.77;5.13;;;16.00;99.90;;;;;;5097680;28;20052;-61
2023/06/15 04:20:11;;;;;;;10.02;5.40;;;16.10;99.90;;;;;;5097557;28;20048;-60
2023/06/15 04:22:37;;;;;;;10.30;5.30;;;16.10;99.90;;;;;;5098369;28;20052;-61
2023/06/15 04:25:03;;;;;;;10.98;5.60;;;16.20;99.90;;;;;;5097417;28;20514;-60
2023/06/15 04:27:31;;;;;;;8.70;4.78;;;16.20;99.90;;;;;;5096480;28;20094;-61
2023/06/15 04:29:57;;;;;;;10.75;5.20;;;16.20;99.90;;;;;;5097463;28;20245;-60
2023/06/15 04:32:25;;;;;;;10.70;5.32;;;16.30;99.90;;;;;;5097555;28;20044;-60
2023/06/15 04:34:54;;;;;;;9.52;4.97;;;16.30;99.90;;;;;;5097679;28;20066;-61
2023/06/15 04:37:20;;;;;;;10.23;6.03;;;16.40;99.90;;;;;;5097372;28;20052;-60
2023/06/15 04:39:45;;;;;;;11.38;5.75;;;16.50;99.90;;;;;;5098000;28;20060;-61
2023/06/15 04:42:11;;;;;;;11.27;6.32;;;16.60;99.90;;;;;;5097477;28;20059;-61
2023/06/15 04:44:37;;;;;;;11.18;5.70;;;16.60;99.90;;;;;;5097195;28;20066;-61
2023/06/15 04:47:06;;;;;;;17.00;5.90;;;16.70;99.90;;;;;;5096026;28;20052;-61
2023/06/15 04:49:32;;;;;;;10.50;5.72;;;16.60;99.90;;;;;;5097566;28;20048;-61
2023/06/15 04:51:58;;;;;;;9.23;5.53;;;16.70;99.90;;;;;;5097732;28;20043;-61
2023/06/15 04:54:23;;;;;;;9.95;5.40;;;16.80;99.90;;;;;;5097012;28;20043;-60
2023/06/15 04:56:49;;;;;;;11.38;5.05;;;16.90;99.90;;;;;;5097751;28;20069;-61
2023/06/15 04:59:15;;;;;;;8.50;5.07;;;17.00;99.90;;;;;;5097289;28;20033;-60
2023/06/15 05:01:40;;;;;;;9.52;5.55;;;17.10;99.90;;;;;;5097173;28;20036;-61
2023/06/15 05:04:06;;;;;;;8.85;5.00;;;17.20;99.90;;;;;;5097159;28;20044;-61
2023/06/15 05:06:32;;;;;;;8.88;4.57;;;17.30;99.90;;;;;;5097407;28;20115;-61
2023/06/15 05:08:58;;;;;;;8.82;4.72;;;17.30;99.90;;;;;;5097383;28;20495;-61
2023/06/15 05:11:23;;;;;;;9.27;5.00;;;17.40;99.90;;;;;;5097012;28;20084;-60
2023/06/15 05:13:49;;;;;;;8.63;4.80;;;17.40;99.90;;;;;;5113880;28;20100;-60
2023/06/15 05:16:15;;;;;;;9.00;5.03;;;17.50;99.90;;;;;;5121155;28;20044;-60
2023/06/15 05:18:41;;;;;;;10.25;4.70;;;17.50;99.90;;;;;;5121009;28;20048;-61
2023/06/15 05:21:07;;;;;;;10.63;4.78;;;17.70;99.90;;;;;;5121066;27;20066;-61
2023/06/15 05:23:33;;;;;;;8.75;4.68;;;17.80;99.90;;;;;;5120991;28;20052;-60
2023/06/15 05:25:59;;;;;;;9.10;5.15;;;17.80;99.90;;;;;;5120947;28;20043;-61
2023/06/15 05:28:25;;;;;;;10.13;5.05;;;18.00;99.90;;;;;;5119642;28;20120;-61
2023/06/15 05:30:50;;;;;;;10.63;5.85;;;18.10;99.90;;;;;;5121366;28;20474;-60
2023/06/15 05:33:17;;;;;;;7.93;4.68;;;18.10;99.90;;;;;;5120457;28;20103;-60
2023/06/15 05:35:43;;;;;;;9.73;5.10;;;18.10;99.90;;;;;;5121076;28;20043;-61
2023/06/15 05:38:09;;;;;;;10.70;5.40;;;18.30;99.90;;;;;;5114963;28;20043;-60
2023/06/15 05:40:35;;;;;;;10.70;5.15;;;18.30;99.90;;;;;;5111088;28;20055;-60
2023/06/15 05:43:00;;;;;;;8.95;4.78;;;18.40;99.90;;;;;;5102430;28;21323;-60
2023/06/15 05:45:26;;;;;;;10.27;4.43;;;18.40;99.90;;;;;;5096821;28;20040;-60
2023/06/15 05:47:52;;;;;;;10.20;4.93;;;18.60;99.90;;;;;;5097266;28;20173;-59
2023/06/15 05:50:18;;;;;;;10.27;5.03;;;18.70;99.90;;;;;;5096593;28;20076;-61
2023/06/15 05:52:43;;;;;;;8.07;4.57;;;18.80;99.90;;;;;;5097491;28;20043;-60
2023/06/15 05:55:09;;;;;;;9.07;4.65;;;18.80;99.90;;;;;;5096383;28;20520;-61
2023/06/15 05:57:35;;;;;;;8.63;4.30;;;18.90;99.90;;;;;;5096850;28;20500;-60
2023/06/15 06:00:03;;;;;;;11.18;5.20;;;19.00;99.90;;;;;;5095299;28;20052;-60
2023/06/15 06:02:29;;;;;;;10.07;4.45;;;19.10;99.90;;;;;;5096477;28;20056;-60
2023/06/15 06:04:55;;;;;;;7.35;4.22;;;19.20;99.90;;;;;;5097075;28;20161;-60
2023/06/15 06:07:21;;;;;;;8.35;4.30;;;19.30;99.90;;;;;;5096282;28;20118;-60
2023/06/15 06:09:46;;;;;;;10.10;5.28;;;19.40;99.90;;;;;;5097082;28;20048;-61
2023/06/15 06:12:13;;;;;;;6.78;3.85;;;19.50;99.90;;;;;;5096495;28;20040;-60
2023/06/15 06:14:39;;;;;;;9.48;4.05;;;19.60;99.90;;;;;;5096368;28;20074;-61
2023/06/15 06:17:05;;;;;;;8.82;4.30;;;19.50;99.90;;;;;;5096039;28;20052;-60
2023/06/15 06:19:31;;;;;;;9.90;4.32;;;19.60;99.90;;;;;;5095693;28;20063;-61
2023/06/15 06:21:56;;;;;;;8.10;3.70;;;19.70;99.90;;;;;;5106421;28;20048;-60
2023/06/15 06:24:22;;;;;;;8.73;3.40;;;19.90;99.80;;;;;;5115923;27;20051;-60
2023/06/15 06:26:48;;;;;;;7.20;3.85;;;20.00;98.30;;;;;;5116990;28;20044;-60
2023/06/15 06:29:13;;;;;;;9.23;3.50;;;20.10;97.80;;;;;;5101119;28;20048;-60
2023/06/15 06:31:39;;;;;;;8.98;3.53;;;20.20;97.50;;;;;;5099343;28;20044;-60
2023/06/15 06:34:05;;;;;;;8.20;3.20;;;20.30;97.00;;;;;;5104917;28;20314;-62
2023/06/15 06:36:31;;;;;;;9.25;3.08;;;20.30;96.60;;;;;;5105035;28;20050;-60
2023/06/15 06:38:57;;;;;;;6.47;2.90;;;20.40;95.30;;;;;;5104130;28;20758;-60
2023/06/15 06:41:22;;;;;;;8.38;3.10;;;20.40;95.20;;;;;;5111680;28;20040;-61
2023/06/15 06:43:50;;;;;;;7.10;3.15;;;20.60;94.30;;;;;;5105932;27;20047;-60
2023/06/15 06:46:16;;;;;;;6.13;2.83;;;20.80;93.90;;;;;;5109989;27;20061;-58
2023/06/15 06:48:42;;;;;;;7.78;2.90;;;20.90;94.00;;;;;;5112183;28;20077;-58
2023/06/15 06:51:07;;;;;;;6.40;2.90;;;21.00;93.70;;;;;;5098390;28;20059;-58
2023/06/15 06:53:33;;;;;;;6.60;2.90;;;21.00;93.20;;;;;;5095174;28;20113;-59
2023/06/15 06:55:59;;;;;;;7.05;2.70;;;21.10;92.60;;;;;;5112495;28;20120;-58
2023/06/15 06:58:24;;;;;;;8.90;2.95;;;21.20;92.60;;;;;;5115731;28;20515;-59
2023/06/15 07:00:50;;;;;;;7.60;2.58;;;21.30;90.50;;;;;;5116401;28;20068;-58
2023/06/15 07:03:16;;;;;;;7.57;2.53;;;21.20;90.80;;;;;;5115251;28;20051;-58
2023/06/15 07:05:41;;;;;;;6.15;2.70;;;21.30;89.10;;;;;;5111297;28;20103;-58
2023/06/15 07:08:07;;;;;;;7.53;2.67;;;21.40;89.40;;;;;;5116965;28;20048;-59
2023/06/15 07:10:33;;;;;;;6.15;2.22;;;21.50;89.00;;;;;;5117829;28;20074;-59
2023/06/15 07:12:58;;;;;;;6.93;2.70;;;21.60;88.60;;;;;;5119081;28;20555;-59
2023/06/15 07:15:27;;;;;;;6.75;2.60;;;21.60;88.20;;;;;;5118936;28;20040;-59
2023/06/15 07:17:53;;;;;;;6.43;2.47;;;21.70;88.30;;;;;;5119026;28;20051;-58
2023/06/15 07:20:19;;;;;;;6.40;2.53;;;21.80;88.10;;;;;;5118881;28;20040;-59
2023/06/15 07:22:44;;;;;;;9.90;3.30;;;21.90;87.50;;;;;;5117730;28;20732;-58
2023/06/15 07:25:10;;;;;;;6.55;2.40;;;22.00;86.10;;;;;;5100639;28;20100;-59
2023/06/15 07:27:36;;;;;;;5.78;2.50;;;22.10;84.20;;;;;;5118795;28;20130;-59
2023/06/15 07:30:02;;;;;;;6.10;2.58;;;22.10;82.00;;;;;;5118565;28;20035;-58
2023/06/15 07:32:27;;;;;;;8.23;2.60;;;22.10;82.90;;;;;;5118358;28;20143;-59
2023/06/15 07:34:53;;;;;;;7.30;2.08;;;22.20;82.60;;;;;;5118313;28;20047;-59
2023/06/15 07:37:18;;;;;;;6.65;2.40;;;22.10;80.90;;;;;;5118126;28;20097;-59
2023/06/15 07:39:44;;;;;;;6.68;2.00;;;22.20;80.90;;;;;;5118825;28;20560;-58
2023/06/15 07:42:10;;;;;;;7.57;2.63;;;22.30;81.20;;;;;;5118365;28;20498;-59
2023/06/15 07:44:36;;;;;;;6.57;2.17;;;22.40;81.00;;;;;;5118614;28;20050;-59
2023/06/15 07:47:02;;;;;;;5.15;2.15;;;22.60;80.90;;;;;;5118429;28;20043;-59
2023/06/15 07:49:28;;;;;;;5.63;2.42;;;22.60;80.50;;;;;;5118274;28;20051;-59
2023/06/15 07:51:54;;;;;;;6.45;2.10;;;22.70;79.70;;;;;;5118347;28;20039;-59
2023/06/15 07:54:20;;;;;;;6.80;2.28;;;22.70;75.80;;;;;;5118217;28;20063;-59
2023/06/15 07:56:46;;;;;;;6.68;2.58;;;22.70;78.10;;;;;;5118794;28;20084;-59
2023/06/15 07:59:12;;;;;;;9.15;2.30;;;22.90;78.20;;;;;;5118298;28;20115;-60
2023/06/15 08:01:38;;;;;;;5.82;2.08;;;22.90;77.60;;;;;;5118272;28;20125;-60
2023/06/15 08:04:04;;;;;;;6.03;2.30;;;22.90;77.20;;;;;;5118350;28;20047;-59
2023/06/15 08:06:30;;;;;;;6.07;2.50;;;22.90;76.90;;;;;;5118393;28;20044;-59
2023/06/15 08:08:56;;;;;;;5.00;2.28;;;23.10;76.90;;;;;;5118052;28;20062;-59
2023/06/15 08:11:21;;;;;;;6.20;2.45;;;23.10;76.20;;;;;;5118148;28;20027;-59
2023/06/15 08:13:47;;;;;;;6.20;2.28;;;23.10;75.80;;;;;;5118892;28;20040;-59
2023/06/15 08:16:13;;;;;;;9.00;2.70;;;23.10;75.60;;;;;;5116794;28;20032;-58
2023/06/15 08:18:38;;;;;;;4.85;2.30;;;23.10;75.40;;;;;;5118190;28;20059;-59
2023/06/15 08:21:04;;;;;;;4.68;2.10;;;23.20;74.20;;;;;;5118010;28;20051;-59
2023/06/15 08:23:30;;;;;;;7.28;2.60;;;23.30;74.20;;;;;;5118135;28;20047;-59
2023/06/15 08:25:56;;;;;;;6.10;2.60;;;23.20;72.90;;;;;;5118159;28;20048;-59
2023/06/15 08:28:22;;;;;;;8.55;2.42;;;23.40;73.60;;;;;;5117838;28;20640;-59
2023/06/15 08:30:47;;;;;;;6.32;2.35;;;23.10;73.40;;;;;;5118172;28;20513;-59
2023/06/15 08:33:14;;;;;;;5.50;2.47;;;23.20;74.10;;;;;;5115918;28;20103;-59
2023/06/15 08:35:40;;;;;;;9.05;2.95;;;23.40;72.60;;;;;;5117594;28;20127;-59
2023/06/15 08:38:07;;;;;;;4.93;2.30;;;23.60;73.90;;;;;;5116377;28;20419;-60
2023/06/15 08:40:32;;;;;;;5.97;2.38;;;23.60;72.40;;;;;;5118109;28;20043;-59
2023/06/15 08:42:59;;;;;;;7.05;2.50;;;23.60;73.00;;;;;;5117759;28;20035;-59
2023/06/15 08:45:42;;;;;;;6.10;2.63;;;23.70;72.70;;;;;;5117959;28;20105;-59
2023/06/15 08:48:10;;;;;;;5.47;2.40;;;23.70;71.90;;;;;;5122075;28;20079;-59
2023/06/15 08:50:41;;;;;;;6.50;2.30;;;23.60;71.80;;;;;;5121433;28;20101;-59
2023/06/15 08:53:08;;;;;;;5.50;2.50;;;23.70;70.40;;;;;;5121578;28;20083;-59
2023/06/15 08:55:35;;;;;;;6.82;2.40;;;23.70;70.60;;;;;;5121737;28;20091;-60
2023/06/15 08:58:01;;;;;;;6.45;2.30;;;23.70;68.20;;;;;;5121723;28;20051;-59
2023/06/15 09:00:27;;;;;;;5.00;2.13;;;23.60;69.20;;;;;;5121902;28;20047;-59
2023/06/15 09:02:57;;;;;;;4.90;2.30;;;23.90;69.90;;;;;;5120973;28;20062;-59
2023/06/15 09:05:23;;;;;;;8.38;2.40;;;23.90;68.00;;;;;;5122165;28;20055;-59
2023/06/15 09:07:48;;;;;;;5.20;1.95;;;23.90;69.10;;;;;;5121657;28;20047;-59
2023/06/15 09:10:19;;;;;;;7.93;2.38;;;24.00;68.50;;;;;;5121673;28;20092;-59
2023/06/15 09:12:51;;;;;;;6.63;2.47;;;24.10;66.60;;;;;;5121371;28;20216;-59
2023/06/15 09:15:19;;;;;;;6.15;2.17;;;24.20;65.70;;;;;;5121372;28;20036;-59
2023/06/15 09:17:46;;;;;;;5.78;2.33;;;24.30;67.10;;;;;;5121636;28;20139;-55
2023/06/15 09:20:12;;;;;;;5.65;2.40;;;24.30;66.80;;;;;;5121059;28;20067;-59
2023/06/15 09:22:42;;;;;;;5.88;2.30;;;24.40;67.50;;;;;;5121513;28;20043;-59
2023/06/15 09:25:20;;;;;;;4.95;2.35;;;24.40;66.20;;;;;;5121188;28;20047;-59
2023/06/15 09:27:57;;;;;;;5.50;2.53;;;24.50;64.10;;;;;;5121024;28;20059;-60
2023/06/15 09:30:31;;;;;;;5.35;2.20;;;24.40;61.80;;;;;;5121072;28;20040;-59
2023/06/15 09:32:57;;;;;;;6.70;2.55;;;24.60;63.80;;;;;;5120697;28;20054;-59
2023/06/15 09:35:23;;;;;;;5.20;2.22;;;24.70;65.10;;;;;;5121516;28;20059;-59
2023/06/15 09:37:54;;;;;;;5.40;2.40;;;24.60;63.20;;;;;;5121113;28;20032;-59
2023/06/15 09:40:19;;;;;;;7.57;2.63;;;24.70;63.70;;;;;;5120780;28;20084;-59
2023/06/15 09:42:50;;;;;;;6.10;2.30;;;24.40;63.30;;;;;;5120752;28;20043;-59
2023/06/15 09:45:16;;;;;;;8.07;2.70;;;24.70;63.20;;;;;;5120683;28;20137;-59
2023/06/15 09:47:42;;;;;;;4.90;2.20;;;24.80;63.80;;;;;;5121203;28;20047;-59
2023/06/15 09:50:10;;;;;;;7.93;2.90;;;24.80;64.40;;;;;;5120593;28;20440;-59
2023/06/15 09:52:41;;;;;;;5.32;2.15;;;24.80;63.10;;;;;;5120949;28;20043;-59
2023/06/15 09:55:07;;;;;;;;;;;24.90;63.10;;;;;;5121285;28;20063;-59
2023/06/15 09:57:33;;;;;;;5.10;2.38;;;24.80;63.30;;;;;;5120599;28;19930;-59
2023/06/15 09:59:59;;;;;;;6.72;2.40;;;25.00;64.00;;;;;;5120033;28;20490;-59
2023/06/15 10:02:26;;;;;;;5.50;2.40;;;25.00;64.20;;;;;;5118914;28;20405;-59
2023/06/15 10:04:52;;;;;;;6.05;2.60;;;24.70;61.70;;;;;;5120836;28;20051;-59
2023/06/15 10:07:21;;;;;;;5.78;2.55;;;24.80;62.40;;;;;;5120059;28;20075;-59
2023/06/15 10:09:48;;;;;;;6.25;2.70;;;25.10;62.90;;;;;;5120478;28;20101;-60
2023/06/15 10:12:21;;;;;;;7.78;2.63;;;25.20;63.60;;;;;;5120365;28;20044;-58
2023/06/15 10:15:00;;;;;;;5.97;2.65;;;25.20;61.70;;;;;;5120220;28;20109;-59
2023/06/15 10:17:32;;;;;;;7.25;2.70;;;25.30;61.50;;;;;;5119606;28;20573;-60
2023/06/15 10:20:08;;;;;;;7.35;2.30;;;25.30;61.90;;;;;;5119264;27;20469;-59
2023/06/15 10:23:00;;;;;;;6.25;2.22;;;25.40;61.20;;;;;;5120230;27;20071;-59
2023/06/15 10:25:30;;;;;;;4.82;2.17;;;25.30;59.90;;;;;;5120032;28;20047;-60
2023/06/15 10:27:58;;;;;;;5.82;2.28;;;25.30;61.60;;;;;;5120120;28;20047;-59
2023/06/15 10:30:41;;;;;;;5.68;2.20;;;25.30;61.30;;;;;;5119826;28;20087;-58
2023/06/15 10:33:21;;;;;;;5.25;2.40;;;25.50;60.70;;;;;;5119227;28;20075;-59
2023/06/15 10:36:10;;;;;;;5.60;2.60;;;25.70;60.90;;;;;;5119830;28;20077;-60
2023/06/15 10:38:49;;;;;;;6.95;2.50;;;25.90;62.00;;;;;;5116252;28;20447;-59
2023/06/15 10:41:15;;;;;;;11.02;2.85;;;25.80;61.30;;;;;;5119114;28;20047;-59
2023/06/15 10:43:56;;;;;;;5.97;2.55;;;25.80;61.40;;;;;;5119993;28;20116;-59
2023/06/15 10:46:27;;;;;;;6.25;2.90;;;25.70;60.20;;;;;;5119166;27;20043;-59
2023/06/15 10:48:53;;;;;;;6.45;2.72;;;25.50;59.50;;;;;;5119557;28;20039;-59
2023/06/15 10:51:21;;;;;;;6.00;2.72;;;25.40;60.30;;;;;;5119234;28;20134;-60
2023/06/15 10:53:47;;;;;;;6.47;2.75;;;25.50;60.50;;;;;;5119267;28;20056;-60
2023/06/15 10:56:15;;;;;;;7.07;2.65;;;25.90;60.50;;;;;;5119343;28;20276;-59
2023/06/15 10:59:00;;;;;;;5.68;2.22;;;25.90;60.00;;;;;;5118464;28;20040;-59
2023/06/15 11:01:28;;;;;;;7.50;2.55;;;26.10;58.90;;;;;;5119174;27;20048;-60
2023/06/15 11:03:55;;;;;;;8.27;2.40;;;26.00;59.20;;;;;;5119065;27;20066;-59
2023/06/15 11:06:29;;;;;;;6.30;2.67;;;26.30;59.40;;;;;;5118710;28;20047;-59
2023/06/15 11:09:02;;;;;;;5.63;2.30;;;26.10;57.80;;;;;;5118452;28;20044;-58
2023/06/15 11:11:32;;;;;;;5.90;2.80;;;26.20;57.50;;;;;;5117357;28;20054;-60
2023/06/15 11:14:03;;;;;;;5.72;2.70;;;25.90;57.70;;;;;;5118781;28;20065;-59
2023/06/15 11:16:38;;;;;;;6.05;2.35;;;26.00;58.00;;;;;;5118756;27;20445;-60
2023/06/15 11:19:16;;;;;;;5.65;2.90;;;26.10;57.50;;;;;;5117145;28;20048;-59
2023/06/15 11:21:50;;;;;;;5.63;2.38;;;25.80;55.30;;;;;;5118653;28;20066;-59
2023/06/15 11:24:16;;;;;;;6.28;2.55;;;26.10;57.80;;;;;;5118433;28;20077;-59
2023/06/15 11:26:43;;;;;;;6.60;2.72;;;25.90;57.50;;;;;;5118830;28;20048;-58
2023/06/15 11:29:12;;;;;;;5.75;2.33;;;26.20;57.50;;;;;;5118844;28;20051;-58
2023/06/15 11:31:41;;;;;;;7.75;2.60;;;26.40;57.00;;;;;;5117169;28;20054;-60
2023/06/15 11:34:10;;;;;;;6.68;2.55;;;26.40;55.70;;;;;;5118530;28;20062;-59
2023/06/15 11:36:37;;;;;;;5.45;2.33;;;26.50;57.00;;;;;;5118657;28;20059;-59
2023/06/15 11:39:07;;;;;;;6.45;2.50;;;26.30;59.40;;;;;;5117264;28;20043;-60
2023/06/15 11:41:32;;;;;;;5.72;2.47;;;26.50;59.70;;;;;;5118252;28;20046;-60
2023/06/15 11:43:58;;;;;;;5.63;2.35;;;26.50;60.20;;;;;;5118644;28;20047;-60
2023/06/15 11:46:25;;;;;;;7.55;2.42;;;26.10;60.30;;;;;;5118395;28;20462;-60
2023/06/15 11:48:57;;;;;;;5.65;2.20;;;26.30;60.60;;;;;;5118090;28;20509;-60
2023/06/15 11:51:23;;;;;;;7.63;2.30;;;26.40;60.10;;;;;;5118245;28;20066;-59
2023/06/15 11:53:52;;;;;;;8.35;2.50;;;26.20;59.90;;;;;;5117954;28;20565;-60
2023/06/15 11:56:18;;;;;;;8.30;2.65;;;26.40;60.10;;;;;;5116945;28;20043;-60
2023/06/15 11:58:48;;;;;;;6.85;2.60;;;26.50;58.60;;;;;;5117885;28;20075;-59
2023/06/15 12:01:15;;;;;;;5.70;2.55;;;26.30;58.90;;;;;;5117168;28;20070;-60
2023/06/15 12:03:48;;;;;;;8.60;2.95;;;26.30;59.10;;;;;;5117979;28;20046;-60
2023/06/15 12:06:19;;;;;;;5.35;2.15;;;26.10;57.80;;;;;;5118058;28;20040;-59
2023/06/15 12:08:46;;;;;;;6.22;2.30;;;26.20;59.20;;;;;;5117896;28;20049;-60
2023/06/15 12:11:12;;;;;;;6.45;2.38;;;26.40;58.90;;;;;;5117849;28;20028;-60
2023/06/15 12:13:41;;;;;;;5.55;2.50;;;26.50;59.00;;;;;;5118435;28;20047;-60
2023/06/15 12:16:07;;;;;;;6.45;2.40;;;26.60;59.70;;;;;;5109937;28;20039;-59
2023/06/15 12:18:33;;;;;;;5.90;3.05;;;26.50;59.10;;;;;;5103542;28;20044;-59
2023/06/15 12:21:03;;;;;;;6.35;2.33;;;26.20;58.10;;;;;;5104542;28;20029;-59
2023/06/15 12:23:33;;;;;;;6.57;2.50;;;26.10;56.70;;;;;;5108164;28;20085;-59
2023/06/15 12:26:03;;;;;;;6.35;2.60;;;26.30;58.40;;;;;;5107463;28;20054;-59
2023/06/15 12:28:32;;;;;;;7.38;2.80;;;26.30;58.90;;;;;;5114912;28;20082;-59
2023/06/15 12:31:05;;;;;;;5.90;2.30;;;26.10;59.70;;;;;;5100623;28;20048;-59
2023/06/15 12:33:41;;;;;;;6.75;2.72;;;26.30;59.10;;;;;;5107596;28;20042;-59
2023/06/15 12:36:17;;;;;;;7.50;2.90;;;26.30;59.80;;;;;;5111846;28;20046;-59
2023/06/15 12:38:46;;;;;;;7.78;2.60;;;26.40;60.10;;;;;;5116657;28;20093;-59
2023/06/15 12:41:13;;;;;;;7.40;2.75;;;26.50;60.20;;;;;;5115928;28;20050;-59
2023/06/15 12:43:39;;;;;;;7.53;2.65;;;26.40;59.50;;;;;;5114547;28;20035;-59
2023/06/15 12:46:05;;;;;;;7.03;2.58;;;26.30;60.00;;;;;;5120842;28;20710;-59
2023/06/15 12:48:33;;;;;;;6.63;2.78;;;26.20;60.00;;;;;;5120315;28;20067;-59